createdAt,value
2022-09-24T00:02:24.498Z,375.77
2022-09-24T00:04:53.172Z,328.52
2022-09-24T00:07:21.587Z,329.45
2022-09-24T00:09:50.095Z,347.70
2022-09-24T00:12:20.027Z,319.75
2022-09-24T00:14:48.494Z,319.67
2022-09-24T00:17:16.915Z,355.27
2022-09-24T00:19:45.401Z,347.17
2022-09-24T00:22:13.879Z,335.55
2022-09-24T00:24:59.684Z,335.13
2022-09-24T00:27:30.435Z,295.33
2022-09-24T00:29:58.842Z,339.88
2022-09-24T00:32:27.435Z,314.42
2022-09-24T00:34:55.990Z,319.17
2022-09-24T00:37:24.431Z,323.20
2022-09-24T00:39:52.866Z,347.60
2022-09-24T00:42:22.976Z,327.65
2022-09-24T00:44:55.061Z,314.15
2022-09-24T00:47:31.661Z,300.95
2022-09-24T00:50:08.272Z,299.50
2022-09-24T00:52:42.195Z,302.38
2022-09-24T00:55:12.106Z,298.38
2022-09-24T00:57:41.627Z,260.13
2022-09-24T01:00:13.207Z,289.98
2022-09-24T01:02:45.260Z,308.33
2022-09-24T01:05:13.867Z,270.13
2022-09-24T01:07:42.601Z,291.20
2022-09-24T01:10:12.165Z,268.13
2022-09-24T01:12:48.422Z,256.17
2022-09-24T01:15:27.032Z,253.35
2022-09-24T01:18:03.031Z,245.13
2022-09-24T01:21:08.469Z,247.40
2022-09-24T01:23:57.530Z,289.13
2022-09-24T01:26:42.276Z,260.45
2022-09-24T01:29:32.566Z,269.85
2022-09-24T01:32:06.072Z,254.02
2022-09-24T01:34:42.027Z,277.70
2022-09-24T01:37:11.218Z,266.33
2022-09-24T01:39:40.418Z,301.08
2022-09-24T01:42:11.407Z,302.08
2022-09-24T01:44:42.251Z,252.57
2022-09-24T01:47:12.472Z,312.55
2022-09-24T01:49:41.088Z,323.73
2022-09-24T01:52:14.576Z,225.63
2022-09-24T01:54:51.917Z,249.95
2022-09-24T01:57:25.914Z,289.13
2022-09-24T02:00:00.665Z,305.80
2022-09-24T02:02:34.759Z,362.10
2022-09-24T02:05:09.258Z,383.27
2022-09-24T02:07:43.638Z,370.55
2022-09-24T02:10:16.577Z,408.48
2022-09-24T02:12:49.071Z,385.48
2022-09-24T02:15:23.394Z,444.30
2022-09-24T02:17:58.185Z,320.30
2022-09-24T02:20:28.983Z,413.80
2022-09-24T02:22:58.781Z,381.27
2022-09-24T02:25:34.962Z,369.77
2022-09-24T02:28:04.432Z,442.85
2022-09-24T02:30:42.083Z,478.55
2022-09-24T02:33:27.998Z,461.58
2022-09-24T02:35:56.580Z,298.23
2022-09-24T02:38:25.523Z,387.48
2022-09-24T02:40:55.419Z,392.40
2022-09-24T02:43:24.437Z,440.60
2022-09-24T02:45:54.567Z,400.88
2022-09-24T02:48:23.058Z,455.05
2022-09-24T02:50:51.677Z,523.25
2022-09-24T02:53:20.129Z,413.58
2022-09-24T02:55:49.012Z,481.27
2022-09-24T02:58:17.940Z,526.58
2022-09-24T03:00:46.386Z,571.70
2022-09-24T03:03:16.354Z,551.95
2022-09-24T03:05:45.875Z,387.70
2022-09-24T03:08:14.382Z,369.08
2022-09-24T03:10:42.891Z,362.80
2022-09-24T03:13:11.393Z,366.95
2022-09-24T03:15:40.033Z,543.85
2022-09-24T03:18:08.773Z,546.25
2022-09-24T03:20:39.027Z,530.45
2022-09-24T03:23:07.500Z,456.60
2022-09-24T03:25:36.058Z,561.95
2022-09-24T03:28:04.497Z,354.17
2022-09-24T03:30:50.516Z,566.28
2022-09-24T03:33:18.969Z,546.63
2022-09-24T03:35:48.831Z,583.47
2022-09-24T03:38:17.299Z,660.45
2022-09-24T03:40:45.795Z,517.88
2022-09-24T03:43:14.305Z,324.65
2022-09-24T03:45:43.011Z,466.45
2022-09-24T03:48:11.428Z,673.75
2022-09-24T03:50:40.556Z,716.20
2022-09-24T03:53:10.438Z,730.38
2022-09-24T03:55:44.305Z,722.90
2022-09-24T03:58:12.979Z,684.00
2022-09-24T04:03:44.644Z,434.90
2022-09-24T04:06:13.179Z,379.98
2022-09-24T04:08:43.021Z,496.92
2022-09-24T04:11:11.502Z,464.77
2022-09-24T04:13:39.933Z,434.05
2022-09-24T04:16:08.696Z,416.48
2022-09-24T04:18:39.386Z,456.88
2022-09-24T04:21:08.399Z,513.03
2022-09-24T04:23:36.976Z,372.33
2022-09-24T04:26:06.856Z,442.20
2022-09-24T04:28:35.563Z,402.67
2022-09-24T04:31:04.078Z,358.35
2022-09-24T04:33:32.684Z,393.65
2022-09-24T04:36:01.558Z,341.25
2022-09-24T04:38:30.043Z,364.52
2022-09-24T04:41:07.806Z,378.98
2022-09-24T04:43:37.098Z,494.90
2022-09-24T04:46:06.722Z,313.73
2022-09-24T04:48:38.534Z,289.67
2022-09-24T04:51:07.591Z,266.42
2022-09-24T04:53:37.352Z,245.07
2022-09-24T04:56:12.241Z,474.08
2022-09-24T04:58:41.453Z,545.45
2022-09-24T05:01:10.857Z,547.33
2022-09-24T05:03:39.479Z,505.77
2022-09-24T05:06:08.026Z,488.65
2022-09-24T05:08:36.457Z,491.63
2022-09-24T05:11:07.403Z,486.67
2022-09-24T05:13:36.275Z,571.00
2022-09-24T05:16:04.771Z,648.40
2022-09-24T05:18:33.303Z,625.00
2022-09-24T05:21:01.767Z,748.95
2022-09-24T05:23:30.224Z,223.07
2022-09-24T05:26:12.549Z,215.07
2022-09-24T05:28:42.983Z,241.27
2022-09-24T05:31:11.959Z,186.80
2022-09-24T05:33:40.526Z,189.82
2022-09-24T05:36:09.121Z,209.27
2022-09-24T05:38:41.475Z,210.02
2022-09-24T05:41:10.924Z,223.40
2022-09-24T05:43:39.334Z,172.60
2022-09-24T05:46:09.312Z,204.88
2022-09-24T05:48:38.047Z,204.57
2022-09-24T05:51:07.125Z,233.85
2022-09-24T05:53:35.582Z,235.32
2022-09-24T05:56:04.147Z,196.18
2022-09-24T05:58:32.925Z,221.63
2022-09-24T06:01:02.088Z,206.75
2022-09-24T06:03:32.538Z,252.43
2022-09-24T06:06:02.358Z,258.52
2022-09-24T06:08:32.595Z,238.73
2022-09-24T06:11:02.623Z,230.77
2022-09-24T06:13:31.694Z,221.13
2022-09-24T06:16:04.397Z,338.50
2022-09-24T06:18:35.185Z,414.98
2022-09-24T06:21:05.066Z,502.65
2022-09-24T06:23:33.792Z,445.15
2022-09-24T06:26:02.552Z,451.73
2022-09-24T06:28:31.737Z,471.95
2022-09-24T06:31:01.386Z,629.45
2022-09-24T06:33:30.668Z,401.67
2022-09-24T06:36:04.162Z,738.17
2022-09-24T06:38:33.054Z,743.03
2022-09-24T06:41:03.661Z,402.20
2022-09-24T06:43:32.729Z,535.00
2022-09-24T06:46:02.235Z,632.08
2022-09-24T06:48:31.706Z,438.52
2022-09-24T06:51:01.582Z,543.45
2022-09-24T06:53:30.047Z,530.55
2022-09-24T06:56:00.806Z,703.17
2022-09-24T06:58:29.301Z,743.65
2022-09-24T07:01:00.430Z,387.73
2022-09-24T07:03:31.366Z,363.95
2022-09-24T07:06:04.364Z,442.48
2022-09-24T07:08:33.185Z,447.98
2022-09-24T07:11:02.389Z,488.13
2022-09-24T07:13:30.853Z,392.02
2022-09-24T07:16:01.663Z,533.97
2022-09-24T07:18:30.216Z,572.72
2022-09-24T07:20:58.685Z,585.20
2022-09-24T07:23:28.563Z,727.30
2022-09-24T07:25:57.847Z,485.88
2022-09-24T07:28:26.951Z,710.65
2022-09-24T07:31:00.118Z,435.55
2022-09-24T07:33:29.144Z,289.85
2022-09-24T07:35:57.600Z,104.85
2022-09-24T07:38:26.128Z,130.85
2022-09-24T07:40:59.355Z,273.30
2022-09-24T07:43:28.713Z,281.92
2022-09-24T07:45:58.312Z,283.17
2022-09-24T07:48:27.042Z,266.30
2022-09-24T07:50:56.179Z,296.73
2022-09-24T07:53:24.898Z,302.42
2022-09-24T07:55:53.697Z,335.77
2022-09-24T07:58:23.578Z,343.38
2022-09-24T08:00:51.998Z,301.33
2022-09-24T08:03:20.580Z,405.52
2022-09-24T08:05:49.500Z,448.70
2022-09-24T08:08:20.679Z,540.17
2022-09-24T08:10:49.226Z,651.85
2022-09-24T08:13:17.977Z,693.20
2022-09-24T08:15:47.847Z,756.88
2022-09-24T08:18:16.680Z,798.63
2022-09-24T08:20:45.151Z,838.53
2022-09-24T08:23:13.719Z,868.75
2022-09-24T08:25:42.142Z,859.90
2022-09-24T08:28:12.336Z,870.40
2022-09-24T08:30:41.188Z,871.65
2022-09-24T08:33:11.134Z,859.10
2022-09-24T08:35:40.787Z,896.08
2022-09-24T08:38:10.222Z,901.45
2022-09-24T08:40:44.543Z,910.33
2022-09-24T08:43:29.893Z,933.70
2022-09-24T08:46:18.691Z,922.15
2022-09-24T08:48:52.961Z,944.58
2022-09-24T08:51:23.539Z,943.20
2022-09-24T08:56:28.319Z,986.22
2022-09-24T08:59:01.539Z,975.33
2022-09-24T09:01:38.645Z,1018.40
2022-09-24T09:04:26.090Z,1023.47
2022-09-24T09:07:05.411Z,1021.22
2022-09-24T09:09:44.550Z,873.03
2022-09-24T09:12:19.120Z,778.58
2022-09-24T09:14:54.844Z,824.75
2022-09-24T09:17:42.454Z,788.13
2022-09-24T09:20:18.779Z,822.75
2022-09-24T09:22:50.652Z,841.72
2022-09-24T09:25:24.062Z,824.15
2022-09-24T09:28:01.647Z,791.85
2022-09-24T09:30:43.671Z,826.40
2022-09-24T09:33:25.903Z,829.47
2022-09-24T09:36:04.011Z,942.85
2022-09-24T09:38:44.221Z,1004.00
2022-09-24T09:41:21.591Z,1019.08
2022-09-24T09:43:50.675Z,1030.55
2022-09-24T09:46:24.742Z,1022.03
2022-09-24T09:48:57.810Z,980.95
2022-09-24T09:51:34.791Z,1031.55
2022-09-24T09:54:04.483Z,1019.17
2022-09-24T09:56:36.679Z,993.58
2022-09-24T09:59:09.232Z,1003.60
2022-09-24T10:01:47.955Z,1008.70
2022-09-24T10:04:31.188Z,1009.25
2022-09-24T10:07:10.570Z,1049.78
2022-09-24T10:09:40.646Z,1051.28
2022-09-24T10:12:17.709Z,984.13
2022-09-24T10:14:57.472Z,741.28
2022-09-24T10:17:29.592Z,778.70
2022-09-24T10:19:58.738Z,740.70
2022-09-24T10:22:30.200Z,760.40
2022-09-24T10:25:02.049Z,825.65
2022-09-24T10:27:35.232Z,777.08
2022-09-24T10:30:23.964Z,742.25
2022-09-24T10:32:59.171Z,763.40
2022-09-24T10:35:30.207Z,768.55
2022-09-24T10:38:01.805Z,802.67
2022-09-24T10:40:32.572Z,743.53
2022-09-24T10:43:02.732Z,714.45
2022-09-24T10:46:01.430Z,733.88
2022-09-24T10:48:40.208Z,752.47
2022-09-24T10:51:19.545Z,766.75
2022-09-24T10:53:58.546Z,784.47
2022-09-24T10:56:36.246Z,798.58
2022-09-24T10:59:29.542Z,794.03
2022-09-24T11:02:16.394Z,811.15
2022-09-24T11:04:52.381Z,773.45
2022-09-24T11:07:46.436Z,798.42
2022-09-24T11:10:25.027Z,793.53
2022-09-24T11:13:05.326Z,825.97
2022-09-24T11:15:53.600Z,813.92
2022-09-24T11:18:36.681Z,855.05
2022-09-24T11:21:21.039Z,820.60
2022-09-24T11:24:08.275Z,868.60
2022-09-24T11:27:14.044Z,862.85
2022-09-24T11:29:58.185Z,845.08
2022-09-24T11:32:36.025Z,856.53
2022-09-24T11:35:19.308Z,971.47
2022-09-24T11:37:59.737Z,926.95
2022-09-24T11:40:47.777Z,936.60
2022-09-24T11:43:45.275Z,918.20
2022-09-24T11:46:26.919Z,881.40
2022-09-24T11:49:27.931Z,767.25
2022-09-24T11:52:05.459Z,764.00
2022-09-24T11:54:39.974Z,726.72
2022-09-24T11:57:17.366Z,744.47
2022-09-24T11:59:54.245Z,755.53
2022-09-24T12:02:29.272Z,753.22
2022-09-24T12:05:04.295Z,788.17
2022-09-24T12:07:40.399Z,770.40
2022-09-24T12:10:32.945Z,781.85
2022-09-24T12:13:12.729Z,765.47
2022-09-24T12:15:50.296Z,763.40
2022-09-24T12:18:24.138Z,720.92
2022-09-24T12:20:56.841Z,677.70
2022-09-24T12:23:30.413Z,649.97
2022-09-24T12:26:01.349Z,545.33
2022-09-24T12:28:55.986Z,563.22
2022-09-24T12:31:50.890Z,514.63
2022-09-24T12:34:28.131Z,355.38
2022-09-24T12:37:02.500Z,327.70
2022-09-24T12:39:38.533Z,363.67
2022-09-24T12:42:09.670Z,378.30
2022-09-24T12:44:45.750Z,665.33
2022-09-24T12:47:21.461Z,637.95
2022-09-24T12:49:54.139Z,516.50
2022-09-24T12:52:28.586Z,729.05
2022-09-24T12:55:01.164Z,923.67
2022-09-24T12:57:34.007Z,691.78
2022-09-24T13:00:05.212Z,643.33
2022-09-24T13:02:48.222Z,631.00
2022-09-24T13:05:27.507Z,717.53
2022-09-24T13:07:59.938Z,634.75
2022-09-24T13:10:31.214Z,770.53
2022-09-24T13:13:01.709Z,882.03
2022-09-24T13:15:35.889Z,845.05
2022-09-24T13:18:19.604Z,776.63
2022-09-24T13:21:00.301Z,773.22
2022-09-24T13:23:35.451Z,875.70
2022-09-24T13:26:06.066Z,812.58
2022-09-24T13:28:44.931Z,841.42
2022-09-24T13:31:25.019Z,722.65
2022-09-24T13:33:57.201Z,729.33
2022-09-24T13:36:31.784Z,690.00
2022-09-24T13:39:05.295Z,768.65
2022-09-24T13:41:46.574Z,685.55
2022-09-24T13:44:20.598Z,897.55
2022-09-24T13:46:55.578Z,680.03
2022-09-24T13:49:27.212Z,694.20
2022-09-24T13:52:07.139Z,859.33
2022-09-24T13:54:40.451Z,847.65
2022-09-24T13:57:13.974Z,683.90
2022-09-24T13:59:42.443Z,811.15
2022-09-24T14:02:26.917Z,692.42
2022-09-24T14:04:58.723Z,753.90
2022-09-24T14:07:28.704Z,651.00
2022-09-24T14:10:06.168Z,733.00
2022-09-24T14:12:34.987Z,912.97
2022-09-24T14:15:11.531Z,861.33
2022-09-24T14:17:40.001Z,882.00
2022-09-24T14:20:15.803Z,890.38
2022-09-24T14:22:47.162Z,571.53
2022-09-24T14:25:18.743Z,618.03
2022-09-24T14:27:50.561Z,588.90
2022-09-24T14:30:22.221Z,704.72
2022-09-24T14:32:54.670Z,606.78
2022-09-24T14:35:30.788Z,601.50
2022-09-24T14:38:04.496Z,481.70
2022-09-24T14:40:41.273Z,491.58
2022-09-24T14:43:19.310Z,568.33
2022-09-24T14:45:50.491Z,516.75
2022-09-24T14:48:22.089Z,482.50
2022-09-24T14:50:51.919Z,374.10
2022-09-24T14:53:24.548Z,391.38
2022-09-24T14:55:53.220Z,445.13
2022-09-24T14:58:35.119Z,451.30
2022-09-24T15:01:07.312Z,416.85
2022-09-24T15:03:42.105Z,450.25
2022-09-24T15:06:22.563Z,489.58
2022-09-24T15:08:58.735Z,523.13
2022-09-24T15:11:30.000Z,476.75
2022-09-24T15:14:04.091Z,464.48
2022-09-24T15:16:35.202Z,462.50
2022-09-24T15:19:19.784Z,403.92
2022-09-24T15:21:50.660Z,418.05
2022-09-24T15:24:20.043Z,392.35
2022-09-24T15:26:50.989Z,440.23
2022-09-24T15:29:24.570Z,443.73
2022-09-24T15:31:54.212Z,375.60
2022-09-24T15:34:22.670Z,381.90
2022-09-24T15:36:55.681Z,441.20
2022-09-24T15:39:26.329Z,384.85
2022-09-24T15:41:54.802Z,382.30
2022-09-24T15:44:28.373Z,399.50
2022-09-24T15:46:58.510Z,360.88
2022-09-24T15:49:27.232Z,370.20
2022-09-24T15:52:01.486Z,432.45
2022-09-24T15:54:30.145Z,402.48
2022-09-24T15:56:58.908Z,314.52
2022-09-24T15:59:28.613Z,322.13
2022-09-24T16:02:00.952Z,293.08
2022-09-24T16:04:29.610Z,329.73
2022-09-24T16:07:00.288Z,362.13
2022-09-24T16:09:28.755Z,358.13
2022-09-24T16:11:57.773Z,375.23
2022-09-24T16:14:26.264Z,386.38
2022-09-24T16:16:55.870Z,414.98
2022-09-24T16:19:24.578Z,409.70
2022-09-24T16:21:53.339Z,450.02
2022-09-24T16:24:23.363Z,403.80
2022-09-24T16:26:51.768Z,321.10
2022-09-24T16:29:20.885Z,306.23
2022-09-24T16:31:49.642Z,287.52
2022-09-24T16:34:18.319Z,291.50
2022-09-24T16:36:46.866Z,361.77
2022-09-24T16:39:15.944Z,421.10
2022-09-24T16:41:45.827Z,386.42
2022-09-24T16:44:15.392Z,338.15
2022-09-24T16:46:44.048Z,422.38
2022-09-24T16:49:12.923Z,399.15
2022-09-24T16:51:41.624Z,389.13
2022-09-24T16:54:10.835Z,464.63
2022-09-24T16:56:39.451Z,453.05
2022-09-24T16:59:11.623Z,478.42
2022-09-24T17:01:42.511Z,456.70
2022-09-24T17:04:11.233Z,395.85
2022-09-24T17:06:39.705Z,513.47
2022-09-24T17:09:25.676Z,507.40
2022-09-24T17:11:54.098Z,520.10
2022-09-24T17:14:25.591Z,495.25
2022-09-24T17:16:54.021Z,492.42
2022-09-24T17:19:22.493Z,439.60
2022-09-24T17:21:51.310Z,409.20
2022-09-24T17:24:22.156Z,552.10
2022-09-24T17:26:51.027Z,455.33
2022-09-24T17:29:22.283Z,462.15
2022-09-24T17:31:52.304Z,534.33
2022-09-24T17:34:20.730Z,432.17
2022-09-24T17:36:49.201Z,413.98
2022-09-24T17:39:18.255Z,407.10
2022-09-24T17:41:46.762Z,419.67
2022-09-24T17:44:17.351Z,409.80
2022-09-24T17:46:46.257Z,413.85
2022-09-24T17:49:16.751Z,523.22
2022-09-24T17:51:46.664Z,516.95
2022-09-24T17:54:16.394Z,545.42
2022-09-24T17:56:44.881Z,543.03
2022-09-24T17:59:15.579Z,508.48
2022-09-24T18:01:45.256Z,507.20
2022-09-24T18:04:17.770Z,507.60
2022-09-24T18:06:47.097Z,458.17
2022-09-24T18:09:16.545Z,479.67
2022-09-24T18:11:46.914Z,500.98
2022-09-24T18:14:17.098Z,476.40
2022-09-24T18:16:46.518Z,496.33
2022-09-24T18:19:17.809Z,543.95
2022-09-24T18:21:48.509Z,561.03
2022-09-24T18:24:17.610Z,588.90
2022-09-24T18:26:51.266Z,492.25
2022-09-24T18:29:21.334Z,479.98
2022-09-24T18:31:51.500Z,524.47
2022-09-24T18:34:21.505Z,521.75
2022-09-24T18:36:49.973Z,474.63
2022-09-24T18:39:24.770Z,433.92
2022-09-24T18:41:54.029Z,495.45
2022-09-24T18:44:22.526Z,452.83
2022-09-24T18:46:51.118Z,424.23
2022-09-24T18:49:21.236Z,438.90
2022-09-24T18:51:52.110Z,446.90
2022-09-24T18:54:20.924Z,476.52
2022-09-24T18:56:49.391Z,465.25
2022-09-24T18:59:19.666Z,501.77
2022-09-24T19:01:50.962Z,528.03
2022-09-24T19:04:21.301Z,541.38
2022-09-24T19:06:50.763Z,526.63
2022-09-24T19:09:20.349Z,497.67
2022-09-24T19:11:49.711Z,520.95
2022-09-24T19:14:19.267Z,566.65
2022-09-24T19:16:48.400Z,512.92
2022-09-24T19:19:17.332Z,517.88
2022-09-24T19:21:47.235Z,520.15
2022-09-24T19:24:15.708Z,530.20
2022-09-24T19:26:44.613Z,542.42
2022-09-24T19:29:14.004Z,554.72
2022-09-24T19:31:45.686Z,568.92
2022-09-24T19:34:15.575Z,558.53
2022-09-24T19:36:45.303Z,557.28
2022-09-24T19:39:18.337Z,546.50
2022-09-24T19:41:47.434Z,517.05
2022-09-24T19:44:16.747Z,519.38
2022-09-24T19:46:45.756Z,520.35
2022-09-24T19:49:14.641Z,513.92
2022-09-24T19:51:43.074Z,511.05
2022-09-24T19:54:12.032Z,453.90
2022-09-24T19:56:42.374Z,463.75
2022-09-24T19:59:11.541Z,484.80
2022-09-24T20:01:40.628Z,481.60
2022-09-24T20:04:09.640Z,485.40
2022-09-24T20:06:39.550Z,486.67
2022-09-24T20:09:08.621Z,487.60
2022-09-24T20:11:37.281Z,524.08
2022-09-24T20:14:09.205Z,496.85
2022-09-24T20:16:38.177Z,517.10
2022-09-24T20:19:06.916Z,485.75
2022-09-24T20:21:37.038Z,473.23
2022-09-24T20:24:06.755Z,460.13
2022-09-24T20:26:53.149Z,521.85
2022-09-24T20:29:23.542Z,476.88
2022-09-24T20:31:55.720Z,514.05
2022-09-24T20:34:28.634Z,490.88
2022-09-24T20:37:01.459Z,505.70
2022-09-24T20:39:30.137Z,462.55
2022-09-24T20:42:06.198Z,478.95
2022-09-24T20:44:36.168Z,483.67
2022-09-24T20:47:05.074Z,461.35
2022-09-24T20:49:34.905Z,497.60
2022-09-24T20:52:05.733Z,508.20
2022-09-24T20:54:34.814Z,483.75
2022-09-24T20:57:03.424Z,509.05
2022-09-24T20:59:31.877Z,497.48
2022-09-24T21:02:03.154Z,503.48
2022-09-24T21:04:32.390Z,530.90
2022-09-24T21:07:01.060Z,516.20
2022-09-24T21:09:29.594Z,509.05
2022-09-24T21:12:02.933Z,522.72
2022-09-24T21:14:31.579Z,519.90
2022-09-24T21:17:01.569Z,541.55
2022-09-24T21:19:32.623Z,534.63
2022-09-24T21:22:01.781Z,544.35
2022-09-24T21:24:31.702Z,538.50
2022-09-24T21:27:05.473Z,526.00
2022-09-24T21:29:34.485Z,525.53
2022-09-24T21:32:04.501Z,554.58
2022-09-24T21:34:33.031Z,547.50
2022-09-24T21:37:01.700Z,560.40
2022-09-24T21:39:30.229Z,542.13
2022-09-24T21:41:59.582Z,527.95
2022-09-24T21:44:34.116Z,581.55
2022-09-24T21:47:04.944Z,588.60
2022-09-24T21:49:36.818Z,602.97
2022-09-24T21:52:06.961Z,592.67
2022-09-24T21:54:36.661Z,598.55
2022-09-24T21:57:05.269Z,621.28
2022-09-24T21:59:50.971Z,662.00
2022-09-24T22:02:20.862Z,720.38
2022-09-24T22:04:49.436Z,725.17
2022-09-24T22:07:18.408Z,730.75
2022-09-24T22:09:46.860Z,720.30
2022-09-24T22:12:15.502Z,729.03
2022-09-24T22:14:45.048Z,715.05
2022-09-24T22:17:14.259Z,699.80
2022-09-24T22:19:44.357Z,552.38
2022-09-24T22:22:12.835Z,547.90
2022-09-24T22:24:41.299Z,739.97
2022-09-24T22:27:09.966Z,700.58
2022-09-24T22:29:38.855Z,605.30
2022-09-24T22:32:07.325Z,564.53
2022-09-24T22:34:55.109Z,546.45
2022-09-24T22:37:25.124Z,521.05
2022-09-24T22:39:53.532Z,483.88
2022-09-24T22:42:22.154Z,523.80
2022-09-24T22:44:50.593Z,529.95
2022-09-24T22:47:19.052Z,579.42
2022-09-24T22:49:47.618Z,709.53
2022-09-24T22:52:16.069Z,565.75
2022-09-24T22:54:45.956Z,722.22
2022-09-24T22:57:16.632Z,705.25
2022-09-24T22:59:45.126Z,674.30
2022-09-24T23:02:14.134Z,717.30
2022-09-24T23:04:42.932Z,561.42
2022-09-24T23:07:11.431Z,693.20
2022-09-24T23:09:39.900Z,703.72
2022-09-24T23:12:09.954Z,532.55
2022-09-24T23:14:38.578Z,559.42
2022-09-24T23:17:07.627Z,618.20
2022-09-24T23:19:49.593Z,589.03
2022-09-24T23:22:19.526Z,576.35
2022-09-24T23:24:50.607Z,631.35
2022-09-24T23:27:20.683Z,712.40
2022-09-24T23:29:49.244Z,615.10
2022-09-24T23:32:18.130Z,672.63
2022-09-24T23:34:47.554Z,723.08
2022-09-24T23:37:16.130Z,724.45
2022-09-24T23:39:44.630Z,614.42
2022-09-24T23:42:16.196Z,722.50
2022-09-24T23:44:48.673Z,662.50
2022-09-24T23:47:18.034Z,601.38
2022-09-24T23:49:46.490Z,553.08
2022-09-24T23:52:14.991Z,725.50
2022-09-24T23:54:43.514Z,725.90
2022-09-24T23:57:11.948Z,583.78
2022-09-24T23:59:40.452Z,632.95
